createdAt,value
2024-02-24T00:00:36.575Z,96807.47
2024-02-24T00:03:24.839Z,96798.03
2024-02-24T00:05:53.489Z,96803.16
2024-02-24T00:08:21.537Z,96800.41
2024-02-24T00:10:50.162Z,96798.47
2024-02-24T00:13:18.175Z,96810.38
2024-02-24T00:15:46.659Z,96809.00
2024-02-24T00:18:14.959Z,96806.03
2024-02-24T00:20:43.534Z,96803.59
2024-02-24T00:26:18.252Z,96803.63
2024-02-24T00:28:47.005Z,96802.69
2024-02-24T00:31:15.173Z,96812.53
2024-02-24T00:33:44.804Z,96813.06
2024-02-24T00:36:13.068Z,96808.31
2024-02-24T00:38:41.516Z,96811.19
2024-02-24T00:41:09.518Z,96811.97
2024-02-24T00:43:37.980Z,96823.03
2024-02-24T00:46:06.080Z,96806.41
2024-02-24T00:48:34.543Z,96816.59
2024-02-24T00:51:02.487Z,96816.81
2024-02-24T00:53:30.912Z,96816.00
2024-02-24T00:55:58.985Z,96814.50
2024-02-24T00:58:27.296Z,96814.69
2024-02-24T01:00:55.313Z,96815.31
2024-02-24T01:03:23.609Z,96816.22
2024-02-24T01:05:51.859Z,96826.00
2024-02-24T01:08:20.573Z,96819.13
2024-02-24T01:10:49.303Z,96809.59
2024-02-24T01:13:17.758Z,96813.16
2024-02-24T01:15:45.872Z,96811.09
2024-02-24T01:18:14.540Z,96815.91
2024-02-24T01:20:42.841Z,96816.72
2024-02-24T01:23:11.168Z,96824.59
2024-02-24T01:25:39.285Z,96822.53
2024-02-24T01:28:07.492Z,96814.63
2024-02-24T01:30:38.496Z,96818.84
2024-02-24T01:33:07.347Z,96820.56
2024-02-24T01:35:36.960Z,96817.94
2024-02-24T01:38:09.023Z,96827.28
2024-02-24T01:40:36.998Z,96834.28
2024-02-24T01:43:30.791Z,96836.13
2024-02-24T01:45:59.061Z,96838.38
2024-02-24T01:48:27.458Z,96828.41
2024-02-24T01:50:56.321Z,96833.59
2024-02-24T01:53:25.675Z,96834.34
2024-02-24T01:55:55.313Z,96837.53
2024-02-24T01:58:25.166Z,96834.78
2024-02-24T02:00:56.231Z,96825.38
2024-02-24T02:03:24.973Z,96836.91
2024-02-24T02:05:52.996Z,96832.84
2024-02-24T02:08:21.570Z,96833.69
2024-02-24T02:10:56.558Z,96828.91
2024-02-24T02:13:25.554Z,96840.03
2024-02-24T02:15:55.614Z,96831.75
2024-02-24T02:18:24.245Z,96835.63
2024-02-24T02:21:12.701Z,96838.53
2024-02-24T02:23:41.207Z,96831.81
2024-02-24T02:26:09.170Z,96840.75
2024-02-24T02:28:37.522Z,96841.44
2024-02-24T02:31:05.431Z,96848.53
2024-02-24T02:33:34.347Z,96844.19
2024-02-24T02:36:03.226Z,96847.72
2024-02-24T02:38:31.591Z,96846.59
2024-02-24T02:40:59.841Z,96838.81
2024-02-24T02:43:28.561Z,96843.44
2024-02-24T02:45:56.519Z,96851.44
2024-02-24T02:48:24.989Z,96853.41
2024-02-24T02:50:53.058Z,96860.47
2024-02-24T02:53:21.729Z,96861.31
2024-02-24T02:55:49.641Z,96862.50
2024-02-24T02:58:18.087Z,96859.34
2024-02-24T03:00:48.567Z,96863.94
2024-02-24T03:03:19.748Z,96860.72
2024-02-24T03:05:47.820Z,96856.44
2024-02-24T03:08:16.134Z,96853.06
2024-02-24T03:10:44.524Z,96855.81
2024-02-24T03:13:13.430Z,96854.09
2024-02-24T03:15:41.396Z,96854.94
2024-02-24T03:18:09.795Z,96852.59
2024-02-24T03:20:38.826Z,96853.97
2024-02-24T03:23:08.022Z,96855.47
2024-02-24T03:25:36.259Z,96852.66
2024-02-24T03:28:05.593Z,96866.09
2024-02-24T03:30:33.486Z,96863.94
2024-02-24T03:33:01.955Z,96864.59
2024-02-24T03:35:30.047Z,96868.06
2024-02-24T03:37:59.456Z,96865.38
2024-02-24T03:40:27.447Z,96870.25
2024-02-24T03:42:55.707Z,96867.72
2024-02-24T03:45:23.826Z,96879.22
2024-02-24T03:47:52.959Z,96872.34
2024-02-24T03:50:21.154Z,96878.66
2024-02-24T03:52:49.617Z,96880.66
2024-02-24T03:55:17.713Z,96877.88
2024-02-24T03:57:48.789Z,96882.56
2024-02-24T04:00:22.082Z,96870.41
2024-02-24T04:02:57.648Z,96876.41
2024-02-24T04:05:30.707Z,96877.72
2024-02-24T04:08:03.444Z,96891.88
2024-02-24T04:10:35.161Z,96893.88
2024-02-24T04:13:05.450Z,96888.28
2024-02-24T04:15:33.535Z,96893.16
2024-02-24T04:18:02.426Z,96897.84
2024-02-24T04:20:30.750Z,96899.63
2024-02-24T04:22:59.113Z,96900.22
2024-02-24T04:25:27.164Z,96899.09
2024-02-24T04:27:55.329Z,96893.84
2024-02-24T04:30:23.328Z,96904.94
2024-02-24T04:32:51.666Z,96896.53
2024-02-24T04:35:19.962Z,96913.84
2024-02-24T04:37:48.228Z,96910.06
2024-02-24T04:40:16.672Z,96908.34
2024-02-24T04:42:46.260Z,96908.72
2024-02-24T04:45:14.587Z,96906.00
2024-02-24T04:47:43.408Z,96919.72
2024-02-24T04:50:11.617Z,96924.66
2024-02-24T04:52:39.985Z,96924.22
2024-02-24T04:55:08.398Z,96920.50
2024-02-24T04:57:36.546Z,96924.50
2024-02-24T05:00:04.977Z,96922.75
2024-02-24T05:02:33.758Z,96913.19
2024-02-24T05:05:01.853Z,96919.50
2024-02-24T05:07:31.169Z,96918.66
2024-02-24T05:09:59.187Z,96920.16
2024-02-24T05:12:27.436Z,96923.09
2024-02-24T05:14:55.770Z,96922.22
2024-02-24T05:17:24.091Z,96929.38
2024-02-24T05:19:52.986Z,96929.31
2024-02-24T05:22:21.243Z,96934.84
2024-02-24T05:24:49.664Z,96933.59
2024-02-24T05:27:19.711Z,96937.56
2024-02-24T05:29:48.231Z,96925.00
2024-02-24T05:32:18.410Z,96936.47
2024-02-24T05:34:46.518Z,96929.28
2024-02-24T05:37:15.357Z,96932.66
2024-02-24T05:39:43.405Z,96932.66
2024-02-24T05:42:11.808Z,96940.66
2024-02-24T05:44:39.878Z,96944.50
2024-02-24T05:47:08.695Z,96940.69
2024-02-24T05:49:36.686Z,96947.34
2024-02-24T05:52:05.791Z,96943.75
2024-02-24T05:54:33.878Z,96947.91
2024-02-24T05:57:05.983Z,96954.22
2024-02-24T05:59:33.981Z,96954.94
2024-02-24T06:02:02.487Z,96941.97
2024-02-24T06:04:31.036Z,96947.84
2024-02-24T06:06:59.422Z,96945.97
2024-02-24T06:09:27.584Z,96949.81
2024-02-24T06:11:55.958Z,96959.72
2024-02-24T06:14:24.223Z,96958.91
2024-02-24T06:16:52.564Z,96947.91
2024-02-24T06:19:21.354Z,96953.16
2024-02-24T06:21:49.704Z,96955.38
2024-02-24T06:24:17.795Z,96952.72
2024-02-24T06:26:46.284Z,96945.50
2024-02-24T06:29:17.475Z,96957.72
2024-02-24T06:31:45.917Z,96944.34
2024-02-24T06:34:13.813Z,96946.28
2024-02-24T06:36:42.322Z,96947.09
2024-02-24T06:39:10.191Z,96946.22
2024-02-24T06:41:38.846Z,96945.72
2024-02-24T06:44:07.923Z,96952.16
2024-02-24T06:46:36.288Z,96935.28
2024-02-24T06:49:04.617Z,96941.94
2024-02-24T06:51:33.134Z,96939.22
2024-02-24T06:54:01.106Z,96946.28
2024-02-24T06:56:29.594Z,96948.63
2024-02-24T06:59:00.074Z,96939.13
2024-02-24T07:01:28.457Z,96949.09
2024-02-24T07:03:59.099Z,96936.97
2024-02-24T07:06:30.590Z,96933.38
2024-02-24T07:08:58.866Z,96935.25
2024-02-24T07:11:30.297Z,96939.56
2024-02-24T07:13:58.451Z,96935.72
2024-02-24T07:16:28.970Z,96940.41
2024-02-24T07:18:57.101Z,96939.47
2024-02-24T07:21:26.057Z,96945.03
2024-02-24T07:23:57.028Z,96934.75
2024-02-24T07:26:25.457Z,96938.16
2024-02-24T07:28:53.341Z,96935.06
2024-02-24T07:31:21.941Z,96933.13
2024-02-24T07:33:49.991Z,96926.34
2024-02-24T08:42:19.147Z,96891.66
2024-02-24T08:44:53.729Z,96884.53
2024-02-24T08:47:25.984Z,96892.81
2024-02-24T08:49:58.250Z,96891.56
2024-02-24T08:52:35.651Z,96882.47
2024-02-24T08:55:12.296Z,96885.06
2024-02-24T08:57:40.166Z,96892.13
2024-02-24T09:00:10.133Z,96884.78
2024-02-24T09:02:38.366Z,96880.13
2024-02-24T09:05:07.517Z,96882.81
2024-02-24T09:07:35.644Z,96886.78
2024-02-24T09:10:07.086Z,96892.56
2024-02-24T09:12:36.214Z,96883.53
2024-02-24T09:15:05.254Z,96880.97
2024-02-24T09:17:33.455Z,96883.06
2024-02-24T09:20:02.600Z,96867.94
2024-02-24T09:22:32.329Z,96879.09
2024-02-24T09:25:00.626Z,96874.28
2024-02-24T09:27:28.933Z,96866.31
2024-02-24T09:29:57.267Z,96860.59
2024-02-24T09:32:25.312Z,96868.44
2024-02-24T09:34:53.725Z,96861.88
2024-02-24T09:37:21.714Z,96862.22
2024-02-24T09:39:50.316Z,96868.91
2024-02-24T09:42:18.188Z,96856.00
2024-02-24T09:44:46.570Z,96861.94
2024-02-24T09:47:14.977Z,96858.69
2024-02-24T09:49:44.911Z,96860.84
2024-02-24T09:52:12.936Z,96857.16
2024-02-24T09:54:41.197Z,96859.28
2024-02-24T09:57:11.215Z,96853.06
2024-02-24T09:59:39.739Z,96854.78
2024-02-24T10:02:07.717Z,96842.75
2024-02-24T10:04:36.064Z,96841.19
2024-02-24T10:07:22.829Z,96851.03
2024-02-24T10:09:51.278Z,96844.94
2024-02-24T10:12:19.325Z,96850.00
2024-02-24T10:14:50.306Z,96838.69
2024-02-24T10:17:18.966Z,96844.47
2024-02-24T10:19:47.937Z,96844.94
2024-02-24T10:22:19.075Z,96844.56
2024-02-24T10:24:47.639Z,96848.50
2024-02-24T10:27:18.614Z,96841.81
2024-02-24T10:29:54.091Z,96834.16
2024-02-24T10:32:23.874Z,96843.75
2024-02-24T10:34:54.082Z,96845.56
2024-02-24T10:37:22.367Z,96838.72
2024-02-24T10:39:51.453Z,96844.16
2024-02-24T10:42:23.837Z,96848.31
2024-02-24T10:44:53.549Z,96842.81
2024-02-24T10:47:22.029Z,96857.81
2024-02-24T10:49:50.652Z,96844.59
2024-02-24T10:52:20.624Z,96850.47
2024-02-24T10:54:51.638Z,96847.31
2024-02-24T10:57:21.150Z,96849.47
2024-02-24T10:59:49.883Z,96844.50
2024-02-24T11:02:18.612Z,96847.31
2024-02-24T11:04:47.036Z,96843.31
2024-02-24T11:07:20.022Z,96844.56
2024-02-24T11:09:53.201Z,96852.22
2024-02-24T11:12:25.363Z,96841.16
2024-02-24T11:14:56.124Z,96843.94
2024-02-24T11:17:53.701Z,96835.16
2024-02-24T11:20:41.331Z,96841.84
2024-02-24T11:23:27.898Z,96847.19
2024-02-24T11:26:17.759Z,96841.88
2024-02-24T11:29:00.224Z,96841.28
2024-02-24T11:31:35.859Z,96839.84
2024-02-24T11:34:07.524Z,96837.00
2024-02-24T11:36:39.531Z,96837.19
2024-02-24T11:39:09.943Z,96845.59
2024-02-24T11:41:38.803Z,96848.34
2024-02-24T11:44:10.046Z,96855.91
2024-02-24T11:46:38.464Z,96850.28
2024-02-24T11:49:06.592Z,96848.72
2024-02-24T11:51:36.090Z,96848.16
2024-02-24T11:54:05.175Z,96850.41
2024-02-24T11:56:34.004Z,96848.97
2024-02-24T11:59:02.591Z,96844.16
2024-02-24T12:01:31.205Z,96838.84
2024-02-24T12:04:01.088Z,96847.19
2024-02-24T12:06:32.337Z,96841.25
2024-02-24T12:09:01.930Z,96840.69
2024-02-24T12:11:30.742Z,96840.03
2024-02-24T12:13:58.748Z,96837.31
2024-02-24T12:16:29.261Z,96847.44
2024-02-24T12:18:59.105Z,96841.81
2024-02-24T12:21:29.031Z,96842.25
2024-02-24T12:24:00.818Z,96840.44
2024-02-24T12:26:29.481Z,96836.91
2024-02-24T12:28:57.639Z,96832.09
2024-02-24T12:31:26.287Z,96845.50
2024-02-24T12:33:54.460Z,96843.16
2024-02-24T12:36:26.265Z,96835.66
2024-02-24T12:38:54.302Z,96834.84
2024-02-24T12:41:22.959Z,96837.94
2024-02-24T12:43:51.105Z,96840.28
2024-02-24T12:46:23.870Z,96840.69
2024-02-24T12:48:52.500Z,96832.66
2024-02-24T12:51:22.306Z,96827.97
2024-02-24T12:53:50.501Z,96841.31
2024-02-24T12:56:18.983Z,96838.41
2024-02-24T12:58:47.256Z,96832.16
2024-02-24T13:01:16.094Z,96836.50
2024-02-24T13:03:44.314Z,96832.00
2024-02-24T13:06:12.942Z,96833.94
2024-02-24T13:08:41.191Z,96821.81
2024-02-24T13:11:10.568Z,96830.53
2024-02-24T13:13:38.722Z,96827.75
2024-02-24T13:16:07.019Z,96832.22
2024-02-24T13:18:35.924Z,96831.78
2024-02-24T13:21:04.782Z,96826.97
2024-02-24T13:23:33.309Z,96832.69
2024-02-24T13:26:01.655Z,96828.31
2024-02-24T13:28:29.631Z,96835.72
2024-02-24T13:30:57.901Z,96827.56
2024-02-24T13:33:26.120Z,96824.19
2024-02-24T13:35:54.751Z,96832.06
2024-02-24T13:38:22.757Z,96826.38
2024-02-24T13:40:51.087Z,96831.84
2024-02-24T13:43:19.292Z,96835.22
2024-02-24T13:45:47.672Z,96831.59
2024-02-24T13:48:16.022Z,96842.03
2024-02-24T13:50:44.376Z,96840.88
2024-02-24T13:53:12.754Z,96838.88
2024-02-24T13:55:41.426Z,96838.75
2024-02-24T13:58:09.510Z,96838.28
2024-02-24T14:00:37.875Z,96835.88
2024-02-24T14:03:06.164Z,96844.97
2024-02-24T14:05:34.900Z,96845.28
2024-02-24T14:08:04.575Z,96845.63
2024-02-24T14:10:34.818Z,96846.13
2024-02-24T14:13:03.006Z,96846.66
2024-02-24T14:15:34.208Z,96856.69
2024-02-24T14:18:02.922Z,96859.53
2024-02-24T14:20:35.633Z,96854.66
2024-02-24T14:23:03.919Z,96855.81
2024-02-24T14:25:35.710Z,96857.34
2024-02-24T14:28:14.426Z,96859.78
2024-02-24T14:30:47.813Z,96862.75
2024-02-24T14:33:16.342Z,96861.91
2024-02-24T14:35:44.752Z,96859.75
2024-02-24T14:38:13.123Z,96863.19
2024-02-24T14:40:41.469Z,96860.75
2024-02-24T14:43:09.370Z,96856.47
2024-02-24T14:45:37.844Z,96866.91
2024-02-24T14:48:06.712Z,96859.53
2024-02-24T14:50:35.500Z,96860.91
2024-02-24T14:53:03.621Z,96861.69
2024-02-24T14:55:31.934Z,96870.78
2024-02-24T14:57:59.805Z,96872.50
2024-02-24T15:00:28.662Z,96873.31
2024-02-24T15:03:08.646Z,96873.97
2024-02-24T15:05:39.541Z,96878.69
2024-02-24T15:08:08.051Z,96884.75
2024-02-24T15:10:36.631Z,96885.13
2024-02-24T15:13:05.566Z,96889.06
2024-02-24T15:15:34.394Z,96893.03
2024-02-24T15:18:06.303Z,96899.22
2024-02-24T15:20:34.718Z,96896.41
2024-02-24T15:23:02.811Z,96911.31
2024-02-24T15:25:31.194Z,96916.53
2024-02-24T15:28:00.206Z,96914.34
2024-02-24T15:30:31.037Z,96911.06
2024-02-24T15:32:59.709Z,96910.91
2024-02-24T15:35:29.095Z,96919.19
2024-02-24T15:37:59.035Z,96914.81
2024-02-24T15:40:29.530Z,96924.88
2024-02-24T15:42:58.757Z,96933.88
2024-02-24T15:45:27.115Z,96930.63
2024-02-24T15:47:55.337Z,96941.44
2024-02-24T15:50:24.564Z,96938.66
2024-02-24T15:52:52.559Z,96935.88
2024-02-24T15:55:20.861Z,96945.56
2024-02-24T15:57:50.247Z,96939.19
2024-02-24T16:00:18.417Z,96947.91
2024-02-24T16:02:46.967Z,96943.66
2024-02-24T16:05:18.381Z,96944.41
2024-02-24T16:07:46.859Z,96937.09
2024-02-24T16:10:16.574Z,96938.69
2024-02-24T16:12:45.071Z,96941.13
2024-02-24T16:15:13.472Z,96940.84
2024-02-24T16:17:41.937Z,96937.16
2024-02-24T16:20:10.450Z,96939.25
2024-02-24T16:22:42.991Z,96933.22
2024-02-24T16:25:14.565Z,96939.63
2024-02-24T16:27:43.886Z,96949.31
2024-02-24T16:30:12.845Z,96942.09
2024-02-24T16:32:42.114Z,96938.78
2024-02-24T16:35:10.136Z,96942.34
2024-02-24T16:37:39.893Z,96947.84
2024-02-24T16:40:09.457Z,96943.97
2024-02-24T16:42:39.214Z,96959.59
2024-02-24T16:45:08.575Z,96944.72
2024-02-24T16:47:37.493Z,96949.38
2024-02-24T16:50:07.379Z,96947.28
2024-02-24T16:52:35.953Z,96946.44
2024-02-24T16:55:05.433Z,96945.09
2024-02-24T16:57:33.865Z,96946.88
2024-02-24T17:00:02.268Z,96949.09
2024-02-24T17:02:32.277Z,96944.25
2024-02-24T17:05:00.319Z,96948.63
2024-02-24T17:07:29.039Z,96950.97
2024-02-24T17:09:58.300Z,96943.50
2024-02-24T17:12:26.878Z,96950.78
2024-02-24T17:14:55.081Z,96946.69
2024-02-24T17:17:24.529Z,96947.44
2024-02-24T17:19:52.645Z,96946.72
2024-02-24T17:22:21.217Z,96951.03
2024-02-24T17:24:49.410Z,96944.81
2024-02-24T17:31:51.168Z,96946.50
2024-02-24T17:34:22.356Z,96952.59
2024-02-24T17:36:53.182Z,96942.47
2024-02-24T17:39:22.630Z,96956.63
2024-02-24T17:41:52.505Z,96962.63
2024-02-24T17:44:21.097Z,96961.03
2024-02-24T17:46:49.349Z,96956.97
2024-02-24T17:49:18.182Z,96958.66
2024-02-24T17:51:46.530Z,96967.72
2024-02-24T17:54:14.679Z,96954.28
2024-02-24T17:56:43.837Z,96965.34
2024-02-24T17:59:13.396Z,96968.06
2024-02-24T18:04:57.448Z,96963.72
2024-02-24T18:07:28.258Z,96962.94
2024-02-24T18:09:56.248Z,96965.66
2024-02-24T18:12:25.259Z,96970.75
2024-02-24T18:14:54.092Z,96975.94
2024-02-24T18:17:22.922Z,96977.50
2024-02-24T18:19:50.850Z,96975.97
2024-02-24T18:22:19.392Z,96970.94
2024-02-24T18:24:47.470Z,96973.97
2024-02-24T18:27:15.927Z,96972.38
2024-02-24T18:29:45.796Z,96980.63
2024-02-24T18:32:14.353Z,96977.44
2024-02-24T18:34:42.569Z,96980.63
2024-02-24T18:37:12.273Z,96982.28
2024-02-24T18:39:42.328Z,96991.69
2024-02-24T18:42:10.744Z,96985.25
2024-02-24T18:44:39.639Z,96985.38
2024-02-24T18:47:08.335Z,96991.69
2024-02-24T18:49:36.780Z,96982.16
2024-02-24T18:52:07.262Z,96986.97
2024-02-24T18:54:35.326Z,96986.94
2024-02-24T18:57:04.794Z,96990.84
2024-02-24T18:59:33.857Z,96991.94
2024-02-24T19:02:02.208Z,96984.09
2024-02-24T19:04:30.405Z,96988.03
2024-02-24T19:06:58.612Z,96981.00
2024-02-24T19:09:26.823Z,96987.75
2024-02-24T19:11:55.380Z,96982.50
2024-02-24T19:14:23.647Z,96985.56
2024-02-24T19:16:52.146Z,96984.50
2024-02-24T19:19:20.389Z,96988.84
2024-02-24T19:21:48.875Z,96979.44
2024-02-24T19:24:17.220Z,96980.56
2024-02-24T19:26:45.677Z,96973.53
2024-02-24T19:29:15.539Z,96984.56
2024-02-24T19:31:43.878Z,96980.63
2024-02-24T19:34:14.461Z,96977.88
2024-02-24T19:36:43.008Z,96977.03
2024-02-24T19:39:16.358Z,96982.94
2024-02-24T19:41:47.789Z,96985.47
2024-02-24T19:44:16.753Z,96984.56
2024-02-24T19:46:45.129Z,96980.63
2024-02-24T19:49:13.385Z,96975.09
2024-02-24T19:51:41.859Z,96971.06
2024-02-24T19:54:09.982Z,96971.13
2024-02-24T19:56:38.363Z,96975.09
2024-02-24T19:59:06.315Z,96983.78
2024-02-24T20:01:34.793Z,96986.94
2024-02-24T20:04:02.714Z,96969.50
2024-02-24T20:06:31.392Z,96972.66
2024-02-24T20:08:59.909Z,96971.84
2024-02-24T20:11:28.558Z,96969.19
2024-02-24T20:13:56.830Z,96976.66
2024-02-24T20:16:25.576Z,96970.34
2024-02-24T20:18:53.696Z,96968.69
2024-02-24T20:21:22.093Z,96966.06
2024-02-24T20:23:50.092Z,96961.72
2024-02-24T20:26:18.994Z,96964.09
2024-02-24T20:28:46.826Z,96964.22
2024-02-24T20:31:15.354Z,96966.16
2024-02-24T20:33:53.355Z,96963.03
2024-02-24T20:36:28.821Z,96967.19
2024-02-24T20:38:59.789Z,96969.06
2024-02-24T20:41:30.519Z,96973.00
2024-02-24T20:43:59.300Z,96965.97
2024-02-24T20:46:27.615Z,96968.66
2024-02-24T20:48:55.704Z,96971.75
2024-02-24T20:51:24.001Z,96971.13
2024-02-24T20:53:53.189Z,96972.16
2024-02-24T20:56:22.923Z,96966.25
2024-02-24T20:58:50.876Z,96964.63
2024-02-24T21:01:19.157Z,96970.63
2024-02-24T21:03:47.301Z,96970.59
2024-02-24T21:06:15.792Z,96960.44
2024-02-24T21:08:44.441Z,96962.81
2024-02-24T21:11:12.709Z,96959.94
2024-02-24T21:13:40.812Z,96960.06
2024-02-24T21:16:09.162Z,96957.28
2024-02-24T21:18:37.375Z,96958.84
2024-02-24T21:21:06.152Z,96963.81
2024-02-24T21:23:34.495Z,96955.50
2024-02-24T21:26:07.310Z,96961.13
2024-02-24T21:28:35.143Z,96959.38
2024-02-24T21:31:03.876Z,96963.53
2024-02-24T21:33:32.285Z,96965.91
2024-02-24T21:36:00.700Z,96971.06
2024-02-24T21:38:31.573Z,96966.00
2024-02-24T21:41:00.322Z,96966.22
2024-02-24T21:43:28.371Z,96964.91
2024-02-24T21:45:56.690Z,96964.84
2024-02-24T21:48:24.724Z,96971.09
2024-02-24T21:50:53.384Z,96971.19
2024-02-24T21:53:21.268Z,96975.16
2024-02-24T21:55:49.675Z,96969.59
2024-02-24T21:58:18.557Z,96966.84
2024-02-24T22:00:49.754Z,96963.97
2024-02-24T22:03:19.203Z,96971.41
2024-02-24T22:05:48.070Z,96961.88
2024-02-24T22:08:16.288Z,96964.38
2024-02-24T22:10:44.699Z,96969.00
2024-02-24T22:13:13.404Z,96964.81
2024-02-24T22:15:41.848Z,96965.63
2024-02-24T22:18:09.958Z,96967.22
2024-02-24T22:20:38.544Z,96963.56
2024-02-24T22:23:06.463Z,96970.72
2024-02-24T22:25:34.974Z,96968.69
2024-02-24T22:28:02.877Z,96972.78
2024-02-24T22:30:31.468Z,96968.00
2024-02-24T22:32:59.629Z,96965.94
2024-02-24T22:35:28.201Z,96970.28
2024-02-24T22:37:56.214Z,96970.31
2024-02-24T22:40:24.703Z,96962.31
2024-02-24T22:42:52.740Z,96962.31
2024-02-24T22:45:21.332Z,96963.22
2024-02-24T22:47:49.780Z,96952.47
2024-02-24T22:50:18.496Z,96960.16
2024-02-24T22:52:46.449Z,96956.56
2024-02-24T22:55:14.922Z,96953.72
2024-02-24T22:57:43.063Z,96954.50
2024-02-24T23:00:15.018Z,96954.03
2024-02-24T23:02:43.757Z,96954.56
2024-02-24T23:05:12.036Z,96959.25
2024-02-24T23:07:40.158Z,96946.25
2024-02-24T23:10:10.927Z,96947.50
2024-02-24T23:12:40.176Z,96945.56
2024-02-24T23:15:09.095Z,96949.78
2024-02-24T23:17:39.722Z,96945.75
2024-02-24T23:20:08.804Z,96940.56
2024-02-24T23:22:36.821Z,96944.94
2024-02-24T23:25:05.549Z,96939.16
2024-02-24T23:27:33.451Z,96934.19
2024-02-24T23:30:02.151Z,96941.88
2024-02-24T23:32:31.772Z,96942.56
2024-02-24T23:35:00.161Z,96937.38
2024-02-24T23:37:28.335Z,96931.81
2024-02-24T23:39:56.676Z,96928.53
2024-02-24T23:42:24.541Z,96932.00
2024-02-24T23:44:53.102Z,96928.94
2024-02-24T23:47:21.705Z,96933.94
2024-02-24T23:49:49.863Z,96934.75
2024-02-24T23:52:18.483Z,96926.88
2024-02-24T23:54:46.677Z,96923.34
2024-02-24T23:57:15.331Z,96931.56
2024-02-24T23:59:43.343Z,96917.41
